Time;durP1;ratioP1;P1;durP2;ratioP2;P2;SDS_P1;SDS_P2;PMS_P1;PMS_P2;Temp;Humidity;BMP_temperature;BMP_pressure;BME280_temperature;BME280_humidity;BME280_pressure;Samples;Min_cycle;Max_cycle;Signal;HPM_P1;HPM_P2
2022/11/17 00:00:04;;;;;;;0.75;0.68;;;7.60;99.90;;;;;;4961749;28;20099;-82
2022/11/17 00:02:30;;;;;;;0.60;0.60;;;7.50;99.90;;;;;;4980513;28;20049;-82
2022/11/17 00:04:56;;;;;;;0.60;0.60;;;7.60;99.90;;;;;;4977895;28;20120;-83
2022/11/17 00:07:21;;;;;;;0.50;0.50;;;7.50;99.90;;;;;;4981186;28;20060;-82
2022/11/17 00:09:47;;;;;;;0.60;0.60;;;7.60;99.90;;;;;;4994105;28;20395;-83
2022/11/17 00:14:57;;;;;;;0.60;0.60;;;7.60;99.90;;;;;;4996630;28;20077;-82
2022/11/17 00:17:22;;;;;;;0.50;0.50;;;7.50;99.90;;;;;;4984133;28;20784;-82
2022/11/17 00:22:32;;;;;;;0.50;0.50;;;7.50;99.90;;;;;;4997355;28;20052;-84
2022/11/17 00:24:58;;;;;;;1.88;1.77;;;7.60;99.90;;;;;;4965294;28;20038;-81
2022/11/17 00:27:27;;;;;;;1.20;1.20;;;7.50;99.90;;;;;;4980133;28;20037;-82
2022/11/17 00:29:52;;;;;;;0.60;0.60;;;7.60;99.90;;;;;;4982429;28;20034;-82
2022/11/17 00:35:14;;;;;;;1.15;1.15;;;7.50;99.90;;;;;;4998099;28;20042;-82
2022/11/17 00:40:27;;;;;;;0.50;0.50;;;7.50;99.90;;;;;;4985661;28;20455;-82
2022/11/17 00:42:52;;;;;;;1.10;1.10;;;7.60;99.90;;;;;;4977613;28;20054;-82
2022/11/17 00:45:18;;;;;;;0.57;0.57;;;7.50;99.90;;;;;;4978128;28;20392;-82
2022/11/17 00:47:44;;;;;;;0.63;0.63;;;7.50;99.90;;;;;;4948936;28;20042;-82
2022/11/17 00:50:09;;;;;;;0.63;0.63;;;7.50;99.90;;;;;;4964803;28;20047;-83
2022/11/17 00:52:35;;;;;;;0.50;0.50;;;7.50;99.90;;;;;;4984794;28;20577;-82
2022/11/17 00:55:01;;;;;;;0.60;0.60;;;7.50;99.90;;;;;;4999136;28;20077;-81
2022/11/17 00:57:27;;;;;;;0.55;0.55;;;7.50;99.90;;;;;;5001256;28;20042;-83
2022/11/17 00:59:52;;;;;;;0.40;0.40;;;7.50;99.90;;;;;;4996097;28;20038;-83
2022/11/17 01:02:18;;;;;;;1.08;1.08;;;7.50;99.90;;;;;;4968723;28;20049;-82
2022/11/17 01:04:44;;;;;;;0.60;0.60;;;7.50;99.90;;;;;;4976688;28;20062;-84
2022/11/17 01:07:09;;;;;;;0.60;0.60;;;7.50;99.90;;;;;;4984790;28;20053;-84
2022/11/17 01:09:35;;;;;;;0.50;0.50;;;7.50;99.90;;;;;;4965629;28;20134;-83
2022/11/17 01:12:01;;;;;;;0.50;0.50;;;7.40;99.90;;;;;;4957753;28;20038;-83
2022/11/17 01:14:29;;;;;;;1.23;1.15;;;7.40;99.90;;;;;;4977687;28;20170;-83
2022/11/17 01:16:55;;;;;;;0.50;0.50;;;7.40;99.90;;;;;;4961173;28;20065;-82
2022/11/17 01:19:22;;;;;;;0.43;0.43;;;7.90;99.90;;;;;;4948770;28;20386;-83
2022/11/17 01:21:48;;;;;;;0.82;0.82;;;7.40;99.90;;;;;;4983645;28;20050;-83
2022/11/17 01:24:15;;;;;;;0.60;0.60;;;7.30;99.90;;;;;;4963763;28;20145;-82
2022/11/17 01:26:42;;;;;;;0.65;0.65;;;7.30;99.90;;;;;;4976990;28;20030;-83
2022/11/17 01:29:10;;;;;;;0.50;0.50;;;7.30;99.90;;;;;;4995611;28;20054;-82
2022/11/17 01:31:39;;;;;;;0.60;0.60;;;7.30;99.90;;;;;;4976758;28;20126;-83
2022/11/17 01:34:06;;;;;;;1.13;1.13;;;7.30;99.90;;;;;;4974357;28;20042;-83
2022/11/17 01:39:21;;;;;;;0.63;0.63;;;7.30;99.90;;;;;;4996156;28;20620;-83
2022/11/17 01:41:47;;;;;;;0.47;0.47;;;7.20;99.90;;;;;;4983581;28;20054;-84
2022/11/17 01:44:35;;;;;;;0.52;0.52;;;7.20;99.90;;;;;;4960970;28;20057;-83
2022/11/17 01:47:11;;;;;;;0.93;0.93;;;7.20;99.90;;;;;;4978117;28;20539;-84
2022/11/17 01:49:37;;;;;;;0.57;0.57;;;7.20;99.90;;;;;;4990988;28;20138;-82
2022/11/17 01:52:06;;;;;;;0.65;0.65;;;7.20;99.90;;;;;;4981151;28;20074;-83
2022/11/17 01:54:34;;;;;;;0.55;0.55;;;7.70;99.90;;;;;;4978605;28;20054;-82
2022/11/17 01:57:04;;;;;;;0.60;0.60;;;7.20;99.90;;;;;;4981547;28;20411;-84
2022/11/17 01:59:35;;;;;;;0.63;0.63;;;7.20;99.90;;;;;;4981378;28;20065;-84
2022/11/17 02:02:01;;;;;;;0.50;0.50;;;7.10;99.90;;;;;;4997784;28;20061;-82
2022/11/17 02:04:32;;;;;;;0.77;0.77;;;7.20;99.90;;;;;;4964282;28;20046;-83
2022/11/17 02:07:10;;;;;;;1.30;1.05;;;7.20;99.90;;;;;;4979895;28;20120;-82
2022/11/17 02:09:38;;;;;;;0.75;0.75;;;7.40;99.90;;;;;;4978619;28;20597;-83
2022/11/17 02:12:08;;;;;;;0.93;0.93;;;7.20;99.90;;;;;;4978550;28;20046;-81
2022/11/17 02:14:43;;;;;;;0.77;0.77;;;7.10;99.90;;;;;;4984247;28;20097;-84
2022/11/17 02:17:10;;;;;;;;;;;7.10;99.90;;;;;;4951886;28;20046;-82
2022/11/17 02:19:41;;;;;;;0.40;0.40;;;7.10;99.90;;;;;;4967805;28;20655;-83
2022/11/17 02:22:47;;;;;;;0.77;0.77;;;7.10;99.90;;;;;;4979081;28;20038;-82
2022/11/17 02:25:21;;;;;;;1.25;1.25;;;7.20;99.90;;;;;;4979035;28;20128;-84
2022/11/17 02:27:53;;;;;;;1.05;0.98;;;7.20;99.90;;;;;;4983532;28;20046;-82
2022/11/17 02:30:21;;;;;;;0.43;0.43;;;7.10;99.90;;;;;;4981211;28;20046;-80
2022/11/17 02:33:04;;;;;;;0.55;0.55;;;7.20;99.90;;;;;;4981760;28;20047;-83
2022/11/17 02:35:49;;;;;;;0.80;0.80;;;7.20;99.90;;;;;;4963367;28;20042;-82
2022/11/17 02:38:30;;;;;;;0.50;0.50;;;7.20;99.90;;;;;;4976780;28;20060;-81
2022/11/17 02:41:30;;;;;;;0.50;0.50;;;7.20;99.90;;;;;;4978206;28;21288;-82
2022/11/17 02:44:09;;;;;;;0.75;0.75;;;7.20;99.90;;;;;;4983546;28;20077;-82
2022/11/17 02:46:49;;;;;;;0.85;0.85;;;7.20;99.90;;;;;;4979400;28;20048;-82
2022/11/17 02:49:21;;;;;;;0.98;0.98;;;7.20;99.90;;;;;;4964237;28;20046;-80
2022/11/17 02:51:52;;;;;;;0.60;0.60;;;7.30;99.90;;;;;;4981800;28;20046;-82
2022/11/17 02:54:19;;;;;;;0.50;0.50;;;7.20;99.90;;;;;;4967505;28;20491;-81
2022/11/17 02:56:45;;;;;;;0.65;0.65;;;7.20;99.90;;;;;;4963360;28;20045;-83
2022/11/17 02:59:14;;;;;;;0.70;0.70;;;7.10;99.90;;;;;;4994439;28;20053;-80
2022/11/17 03:02:19;;;;;;;0.60;0.60;;;7.10;99.90;;;;;;4997617;28;20046;-81
2022/11/17 03:05:02;;;;;;;0.80;0.80;;;7.10;99.90;;;;;;4990134;28;20084;-83
2022/11/17 03:07:50;;;;;;;0.50;0.50;;;7.10;99.90;;;;;;4999497;28;20049;-83
2022/11/17 03:10:43;;;;;;;0.60;0.60;;;7.00;99.90;;;;;;4983295;28;20495;-83
2022/11/17 03:13:28;;;;;;;0.50;0.50;;;7.00;99.90;;;;;;4984712;28;20515;-83
2022/11/17 03:16:29;;;;;;;0.60;0.60;;;7.00;99.90;;;;;;4986331;28;20381;-82
2022/11/17 03:19:15;;;;;;;0.60;0.60;;;7.00;99.90;;;;;;4996347;28;20482;-82
2022/11/17 03:21:49;;;;;;;0.65;0.65;;;7.00;99.90;;;;;;5001310;28;20458;-83
2022/11/17 03:24:42;;;;;;;0.50;0.50;;;7.00;99.90;;;;;;4984391;28;20169;-82
2022/11/17 03:27:17;;;;;;;0.68;0.68;;;7.00;99.90;;;;;;4982431;28;20095;-82
2022/11/17 03:29:48;;;;;;;0.50;0.50;;;7.00;99.90;;;;;;4969126;28;20424;-84
2022/11/17 03:32:15;;;;;;;0.60;0.60;;;7.00;99.90;;;;;;5007778;28;20041;-82
2022/11/17 03:35:06;;;;;;;0.60;0.60;;;7.00;99.90;;;;;;5008668;28;20069;-82
2022/11/17 03:37:34;;;;;;;0.50;0.50;;;7.00;99.90;;;;;;4991943;28;20038;-83
2022/11/17 03:40:11;;;;;;;0.57;0.57;;;6.90;99.90;;;;;;4989186;28;20041;-83
2022/11/17 03:42:45;;;;;;;0.82;0.82;;;6.90;99.90;;;;;;4969695;28;20520;-84
2022/11/17 03:45:18;;;;;;;0.40;0.40;;;6.90;99.90;;;;;;4986518;28;20054;-83
2022/11/17 03:47:48;;;;;;;0.60;0.60;;;6.90;99.90;;;;;;4974043;28;20104;-82
2022/11/17 03:50:24;;;;;;;0.60;0.60;;;6.90;99.90;;;;;;4980360;28;20050;-82
2022/11/17 03:52:50;;;;;;;0.65;0.65;;;6.80;99.90;;;;;;4981940;28;20129;-82
2022/11/17 03:55:16;;;;;;;1.00;0.95;;;6.80;99.90;;;;;;4966174;28;20046;-84
2022/11/17 03:57:58;;;;;;;0.60;0.60;;;6.80;99.90;;;;;;4964299;28;20048;-83
2022/11/17 04:00:24;;;;;;;0.63;0.63;;;6.80;99.90;;;;;;4980097;28;20130;-83
2022/11/17 04:02:54;;;;;;;0.50;0.50;;;7.00;99.90;;;;;;4978269;28;20054;-82
2022/11/17 04:05:20;;;;;;;0.60;0.60;;;6.80;99.90;;;;;;4976258;28;20077;-83
2022/11/17 04:07:47;;;;;;;;;;;6.70;99.90;;;;;;4960346;28;20034;-82
2022/11/17 04:10:15;;;;;;;0.70;0.70;;;6.70;99.90;;;;;;4977686;28;19932;-82
2022/11/17 04:18:10;;;;;;;0.63;0.63;;;6.60;99.90;;;;;;4975215;28;20050;-83
2022/11/17 04:20:35;;;;;;;0.52;0.52;;;6.60;99.90;;;;;;4974455;28;20034;-81
2022/11/17 04:23:06;;;;;;;0.60;0.60;;;6.70;99.90;;;;;;4961085;28;20130;-83
2022/11/17 04:28:36;;;;;;;0.50;0.50;;;6.60;99.90;;;;;;4965758;28;20046;-82
2022/11/17 04:31:24;;;;;;;0.55;0.55;;;6.60;99.90;;;;;;4978701;28;20096;-81
2022/11/17 04:33:55;;;;;;;0.63;0.63;;;6.60;99.90;;;;;;4980216;28;21649;-82
2022/11/17 04:36:24;;;;;;;1.10;1.10;;;6.50;99.90;;;;;;4960853;28;20502;-82
2022/11/17 04:38:52;;;;;;;0.65;0.65;;;6.60;99.90;;;;;;4978898;28;20511;-82
2022/11/17 04:44:07;;;;;;;0.85;0.85;;;6.50;99.90;;;;;;4983134;28;20732;-82
2022/11/17 04:46:34;;;;;;;0.50;0.50;;;6.50;99.90;;;;;;4984701;28;20392;-83
2022/11/17 04:49:01;;;;;;;0.57;0.57;;;6.50;99.90;;;;;;4983736;28;20068;-83
2022/11/17 04:51:27;;;;;;;0.60;0.60;;;6.50;99.90;;;;;;5002438;28;20082;-84
2022/11/17 04:53:54;;;;;;;0.60;0.60;;;6.50;99.90;;;;;;4988712;28;20488;-80
2022/11/17 04:56:21;;;;;;;0.60;0.60;;;6.50;99.90;;;;;;4983015;28;20056;-81
2022/11/17 04:58:47;;;;;;;0.73;0.73;;;6.50;99.90;;;;;;4992131;28;20133;-81
2022/11/17 05:01:13;;;;;;;0.60;0.60;;;6.50;99.90;;;;;;5003282;28;20128;-83
2022/11/17 05:03:42;;;;;;;0.60;0.60;;;6.40;99.90;;;;;;4953973;28;20042;-82
2022/11/17 05:06:09;;;;;;;0.60;0.60;;;6.40;99.90;;;;;;4994015;28;20050;-82
2022/11/17 05:08:37;;;;;;;0.60;0.60;;;6.40;99.90;;;;;;4975987;28;20053;-81
2022/11/17 05:13:49;;;;;;;0.45;0.45;;;6.30;99.90;;;;;;4984726;28;20057;-81
2022/11/17 05:19:00;;;;;;;0.70;0.70;;;6.30;99.90;;;;;;4983772;28;20050;-84
2022/11/17 05:21:26;;;;;;;0.68;0.68;;;6.30;99.90;;;;;;4974867;28;20046;-82
2022/11/17 05:23:55;;;;;;;;;;;6.30;99.90;;;;;;4988681;28;20072;-80
2022/11/17 05:26:31;;;;;;;0.50;0.50;;;6.30;99.90;;;;;;5008792;28;20383;-83
2022/11/17 05:28:58;;;;;;;0.47;0.47;;;6.30;99.90;;;;;;5001239;28;20089;-83
2022/11/17 05:31:25;;;;;;;0.60;0.60;;;6.30;99.90;;;;;;4983949;28;20073;-83
2022/11/17 05:33:53;;;;;;;1.05;1.05;;;6.30;99.90;;;;;;4994968;28;20446;-82
2022/11/17 05:36:21;;;;;;;0.60;0.60;;;6.30;99.90;;;;;;5005029;28;20387;-82
2022/11/17 05:38:47;;;;;;;0.60;0.60;;;6.30;99.90;;;;;;4961696;28;20061;-82
2022/11/17 05:41:15;;;;;;;0.63;0.63;;;6.70;99.90;;;;;;4993203;28;20042;-83
2022/11/17 05:43:41;;;;;;;0.60;0.60;;;6.20;99.90;;;;;;4993464;28;20057;-81
2022/11/17 05:46:06;;;;;;;0.52;0.52;;;6.20;99.90;;;;;;4992417;28;20053;-81
2022/11/17 05:48:35;;;;;;;0.68;0.68;;;6.20;99.90;;;;;;4988218;28;20328;-83
2022/11/17 05:51:01;;;;;;;0.60;0.60;;;6.20;99.90;;;;;;4999586;28;20151;-82
2022/11/17 05:53:28;;;;;;;1.50;1.50;;;6.20;99.90;;;;;;4983103;28;21369;-82
2022/11/17 05:56:19;;;;;;;1.40;1.40;;;6.20;99.90;;;;;;5001184;28;20041;-81
2022/11/17 05:58:49;;;;;;;0.63;0.63;;;6.20;99.90;;;;;;4988030;28;20040;-82
2022/11/17 06:01:18;;;;;;;0.73;0.73;;;6.10;99.90;;;;;;4986321;28;20057;-82
2022/11/17 06:03:50;;;;;;;0.60;0.60;;;6.10;99.90;;;;;;4998786;28;20065;-80
2022/11/17 06:06:15;;;;;;;0.80;0.80;;;6.10;99.90;;;;;;4983200;28;20555;-82
2022/11/17 06:08:48;;;;;;;0.40;0.40;;;6.30;99.90;;;;;;4988300;28;20388;-82
2022/11/17 06:11:15;;;;;;;0.90;0.70;;;6.10;99.90;;;;;;4987263;28;20073;-83
2022/11/17 06:13:41;;;;;;;0.60;0.60;;;6.10;99.90;;;;;;4995352;28;20072;-83
2022/11/17 06:16:10;;;;;;;0.60;0.60;;;6.10;99.90;;;;;;4991131;28;20050;-83
2022/11/17 06:18:47;;;;;;;0.60;0.60;;;6.10;99.90;;;;;;4984192;28;20042;-81
2022/11/17 06:21:15;;;;;;;0.52;0.52;;;6.20;99.90;;;;;;4983856;28;20149;-81
2022/11/17 06:23:44;;;;;;;0.55;0.55;;;6.10;99.90;;;;;;5010503;28;20099;-82
2022/11/17 06:26:11;;;;;;;0.57;0.57;;;6.10;99.90;;;;;;4992339;28;20384;-81
2022/11/17 06:28:40;;;;;;;0.52;0.52;;;6.00;99.90;;;;;;4971844;28;20399;-82
2022/11/17 06:31:06;;;;;;;0.60;0.60;;;6.10;99.90;;;;;;4987989;28;20048;-84
2022/11/17 06:33:34;;;;;;;0.50;0.50;;;6.40;99.90;;;;;;4986296;28;20037;-83
2022/11/17 06:36:01;;;;;;;0.50;0.50;;;6.00;99.90;;;;;;4985672;28;20045;-83
2022/11/17 06:38:30;;;;;;;0.50;0.50;;;6.10;99.90;;;;;;5002570;28;20106;-82
2022/11/17 06:40:56;;;;;;;0.50;0.50;;;6.10;99.90;;;;;;4986354;28;20046;-83
2022/11/17 06:43:21;;;;;;;0.60;0.60;;;6.00;99.90;;;;;;4992207;28;20100;-84
2022/11/17 06:45:47;;;;;;;0.60;0.60;;;6.10;99.90;;;;;;4974533;28;20476;-83
2022/11/17 06:48:16;;;;;;;0.60;0.60;;;6.00;99.90;;;;;;4968511;28;20101;-84
2022/11/17 06:50:47;;;;;;;0.60;0.60;;;6.00;99.90;;;;;;4996384;28;20037;-84
2022/11/17 06:53:13;;;;;;;0.50;0.50;;;6.10;99.90;;;;;;4983638;28;20050;-83
2022/11/17 06:55:39;;;;;;;1.92;1.83;;;6.00;99.90;;;;;;4967137;28;20038;-84
2022/11/17 06:58:07;;;;;;;1.20;1.20;;;6.00;99.90;;;;;;4989477;28;20038;-83
2022/11/17 07:00:33;;;;;;;0.60;0.60;;;6.00;99.90;;;;;;5012533;28;20030;-84
2022/11/17 07:03:02;;;;;;;0.60;0.60;;;6.00;99.90;;;;;;4994389;28;20066;-82
2022/11/17 07:05:29;;;;;;;0.73;0.73;;;6.00;99.90;;;;;;4999047;28;20084;-84
2022/11/17 07:07:59;;;;;;;0.70;0.70;;;5.90;99.90;;;;;;4979646;28;20025;-83
2022/11/17 07:10:26;;;;;;;0.50;0.50;;;6.00;99.90;;;;;;4967332;28;20636;-82
2022/11/17 07:12:52;;;;;;;0.52;0.52;;;6.10;99.90;;;;;;5000265;28;20149;-83
2022/11/17 07:15:18;;;;;;;0.55;0.55;;;6.30;99.90;;;;;;4995674;28;20060;-82
2022/11/17 07:17:44;;;;;;;0.50;0.50;;;6.00;99.90;;;;;;4984824;28;20492;-83
2022/11/17 07:20:10;;;;;;;0.60;0.60;;;6.30;99.90;;;;;;4986177;28;20050;-82
2022/11/17 07:22:36;;;;;;;;;;;6.00;99.90;;;;;;4981500;28;20049;-82
2022/11/17 07:25:02;;;;;;;0.70;0.70;;;6.00;99.90;;;;;;4965124;28;19921;-84
2022/11/17 07:27:29;;;;;;;0.60;0.60;;;6.00;99.90;;;;;;5002216;28;20045;-82
2022/11/17 07:29:55;;;;;;;0.70;0.70;;;6.00;99.90;;;;;;4969783;28;20046;-83
2022/11/17 07:32:21;;;;;;;2.15;0.95;;;6.00;99.90;;;;;;4986777;28;20056;-82
2022/11/17 07:34:47;;;;;;;0.70;0.70;;;6.40;99.90;;;;;;4980819;28;20045;-83
2022/11/17 07:37:13;;;;;;;0.52;0.52;;;6.00;99.90;;;;;;4988931;28;20518;-82
2022/11/17 07:39:39;;;;;;;0.60;0.60;;;6.00;99.90;;;;;;4963663;28;20073;-83
2022/11/17 07:42:07;;;;;;;0.50;0.50;;;6.00;99.90;;;;;;4981704;28;20054;-84
2022/11/17 07:44:33;;;;;;;0.70;0.70;;;6.00;99.90;;;;;;4966055;28;20080;-83
2022/11/17 07:46:59;;;;;;;0.60;0.60;;;6.00;99.90;;;;;;4970349;28;20683;-83
2022/11/17 07:49:26;;;;;;;0.63;0.63;;;6.20;99.90;;;;;;4985262;28;20042;-81
2022/11/17 07:51:52;;;;;;;0.60;0.60;;;6.10;99.90;;;;;;4982630;28;20510;-82
2022/11/17 07:54:18;;;;;;;0.43;0.43;;;6.00;99.90;;;;;;4968904;28;20124;-83
2022/11/17 07:56:43;;;;;;;0.50;0.50;;;6.00;99.90;;;;;;4982851;28;20120;-84
2022/11/17 07:59:09;;;;;;;0.63;0.63;;;6.00;99.90;;;;;;4964309;28;20065;-82
2022/11/17 08:01:35;;;;;;;0.80;0.80;;;6.00;99.90;;;;;;4997564;28;20129;-83
2022/11/17 08:04:00;;;;;;;1.00;1.00;;;6.00;99.90;;;;;;4983567;28;20108;-83
2022/11/17 08:06:26;;;;;;;0.50;0.50;;;6.20;99.90;;;;;;4981683;28;20052;-83
2022/11/17 08:08:53;;;;;;;0.68;0.68;;;6.00;99.90;;;;;;4949973;28;20045;-83
2022/11/17 08:11:21;;;;;;;0.60;0.60;;;6.00;99.90;;;;;;4986688;28;20068;-83
2022/11/17 08:13:49;;;;;;;0.60;0.60;;;6.00;99.90;;;;;;4982550;28;20041;-84
2022/11/17 08:16:17;;;;;;;0.60;0.60;;;6.40;99.90;;;;;;4981514;28;20476;-83
2022/11/17 08:18:43;;;;;;;0.52;0.52;;;6.00;99.90;;;;;;4966956;28;20049;-83
2022/11/17 08:21:12;;;;;;;0.80;0.80;;;6.00;99.90;;;;;;4950435;28;20038;-84
2022/11/17 08:23:39;;;;;;;0.70;0.70;;;6.00;99.90;;;;;;4962737;28;20030;-84
2022/11/17 08:26:07;;;;;;;0.52;0.52;;;5.90;99.90;;;;;;4986502;28;20037;-83
2022/11/17 08:28:35;;;;;;;0.80;0.80;;;6.00;99.90;;;;;;4983805;28;20042;-82
2022/11/17 08:31:03;;;;;;;0.50;0.50;;;6.10;99.90;;;;;;4981037;28;20041;-83
2022/11/17 08:33:29;;;;;;;0.85;0.85;;;6.00;99.90;;;;;;4983436;28;20487;-83
2022/11/17 08:36:02;;;;;;;0.68;0.68;;;5.90;99.90;;;;;;4998909;28;20084;-83
2022/11/17 08:38:29;;;;;;;0.70;0.70;;;6.00;99.90;;;;;;4964354;28;20056;-82
2022/11/17 08:40:57;;;;;;;0.60;0.60;;;6.00;99.90;;;;;;5004639;28;20042;-83
2022/11/17 08:43:23;;;;;;;1.33;1.25;;;6.00;99.90;;;;;;4982655;28;20057;-83
2022/11/17 08:45:49;;;;;;;0.40;0.40;;;6.00;99.90;;;;;;4978920;28;20442;-82
2022/11/17 08:48:15;;;;;;;0.40;0.40;;;6.00;99.90;;;;;;4993426;28;20038;-83
2022/11/17 08:50:41;;;;;;;0.70;0.70;;;6.00;99.90;;;;;;5000742;28;20030;-83
2022/11/17 08:53:12;;;;;;;0.60;0.60;;;6.00;99.90;;;;;;4986187;28;20120;-83
2022/11/17 08:55:41;;;;;;;0.57;0.57;;;6.00;99.90;;;;;;5000500;28;20030;-81
2022/11/17 08:58:07;;;;;;;0.40;0.40;;;6.00;99.90;;;;;;4978847;28;20044;-83
2022/11/17 09:00:33;;;;;;;;;;;6.10;99.90;;;;;;4952331;28;20095;-82
2022/11/17 09:02:58;;;;;;;0.50;0.50;;;6.00;99.90;;;;;;4969796;28;19928;-82
2022/11/17 09:05:24;;;;;;;0.80;0.80;;;6.00;99.90;;;;;;4989482;28;20096;-82
2022/11/17 09:07:50;;;;;;;0.50;0.50;;;6.10;99.90;;;;;;4952800;28;20603;-83
2022/11/17 09:10:16;;;;;;;0.60;0.60;;;6.10;99.90;;;;;;4971061;28;20050;-83
2022/11/17 09:12:42;;;;;;;;;;;6.10;99.90;;;;;;4984064;28;20520;-84
2022/11/17 09:15:08;;;;;;;0.50;0.50;;;6.10;99.90;;;;;;4969015;28;19917;-83
2022/11/17 09:17:34;;;;;;;;;;;6.20;99.90;;;;;;4989981;28;20102;-82
2022/11/17 09:20:00;;;;;;;0.50;0.50;;;6.20;99.90;;;;;;4985433;28;19921;-83
2022/11/17 09:22:26;;;;;;;0.60;0.60;;;6.20;99.90;;;;;;4970001;28;20038;-83
2022/11/17 09:24:52;;;;;;;0.68;0.68;;;6.20;99.90;;;;;;4972058;28;20045;-83
2022/11/17 09:27:17;;;;;;;0.80;0.80;;;6.30;99.90;;;;;;4983842;28;20126;-84
2022/11/17 09:29:43;;;;;;;0.60;0.60;;;6.10;99.90;;;;;;5010115;28;20053;-83
2022/11/17 09:32:09;;;;;;;0.88;0.80;;;6.20;99.90;;;;;;4997169;28;20538;-84
2022/11/17 09:34:41;;;;;;;0.68;0.68;;;6.10;99.90;;;;;;5002469;28;20626;-82
2022/11/17 09:37:07;;;;;;;0.55;0.55;;;6.10;99.90;;;;;;4971221;28;20431;-83
2022/11/17 09:39:35;;;;;;;0.60;0.60;;;6.20;99.90;;;;;;4987538;28;20450;-83
2022/11/17 09:42:02;;;;;;;0.55;0.55;;;6.10;99.90;;;;;;4986147;28;20068;-83
2022/11/17 09:44:33;;;;;;;0.60;0.60;;;6.20;99.90;;;;;;4972717;28;20176;-84
2022/11/17 09:47:21;;;;;;;0.63;0.60;;;6.20;99.90;;;;;;5004374;28;20543;-83
2022/11/17 09:50:01;;;;;;;0.60;0.60;;;6.20;99.90;;;;;;4984623;28;20460;-82
2022/11/17 09:52:53;;;;;;;0.50;0.50;;;6.20;99.90;;;;;;4988948;28;20435;-83
2022/11/17 09:55:39;;;;;;;0.70;0.70;;;6.20;99.90;;;;;;4970164;28;20380;-83
2022/11/17 09:58:10;;;;;;;0.50;0.50;;;6.90;99.90;;;;;;4984382;28;20050;-83
2022/11/17 10:00:39;;;;;;;0.52;0.52;;;6.20;99.90;;;;;;4990492;28;20045;-82
2022/11/17 10:03:28;;;;;;;0.50;0.50;;;6.20;99.90;;;;;;4984946;28;20034;-83
2022/11/17 10:05:54;;;;;;;0.52;0.52;;;6.20;99.90;;;;;;5001611;28;20041;-84
2022/11/17 10:08:33;;;;;;;;;;;6.20;99.90;;;;;;5002612;28;20053;-83
2022/11/17 10:11:30;;;;;;;0.65;0.65;;;6.20;99.90;;;;;;4971451;28;19917;-83
2022/11/17 10:13:48;;;;;;;0.60;0.60;;;6.40;99.90;;;;;;4983539;28;20064;-83
2022/11/17 10:16:14;;;;;;;0.65;0.65;;;6.20;99.90;;;;;;4986619;28;20059;-83
2022/11/17 10:18:40;;;;;;;0.50;0.50;;;6.30;99.90;;;;;;4984583;28;20476;-82
2022/11/17 10:21:08;;;;;;;0.50;0.50;;;6.30;99.90;;;;;;4988531;28;20046;-84
2022/11/17 10:23:43;;;;;;;0.47;0.47;;;6.30;99.90;;;;;;5000550;28;20104;-83
2022/11/17 10:26:12;;;;;;;0.60;0.60;;;6.30;99.90;;;;;;4970345;28;20064;-84
2022/11/17 10:28:38;;;;;;;0.63;0.63;;;6.30;99.90;;;;;;4984079;28;20058;-83
2022/11/17 10:31:11;;;;;;;0.55;0.55;;;6.30;99.90;;;;;;4982898;28;20088;-83
2022/11/17 10:33:43;;;;;;;0.60;0.60;;;6.30;99.90;;;;;;4976056;28;20108;-84
2022/11/17 10:36:26;;;;;;;0.98;0.98;;;6.30;99.90;;;;;;4975827;28;20042;-83
2022/11/17 10:38:54;;;;;;;0.60;0.60;;;6.30;99.90;;;;;;4975632;28;20223;-83
2022/11/17 10:41:28;;;;;;;0.50;0.50;;;6.30;99.90;;;;;;4962100;28;20096;-83
2022/11/17 10:44:25;;;;;;;0.70;0.70;;;6.70;99.90;;;;;;4992732;28;21568;-83
2022/11/17 10:47:06;;;;;;;0.50;0.50;;;6.30;99.90;;;;;;4960458;28;20211;-84
2022/11/17 10:49:34;;;;;;;0.60;0.60;;;6.40;99.90;;;;;;4960663;28;20438;-82
2022/11/17 10:52:16;;;;;;;0.57;0.57;;;6.40;99.90;;;;;;4922261;28;20038;-82
2022/11/17 10:54:42;;;;;;;0.60;0.60;;;6.40;99.90;;;;;;4973195;28;20401;-82
2022/11/17 10:57:21;;;;;;;0.80;0.80;;;6.40;99.90;;;;;;4975599;28;20046;-84
2022/11/17 10:59:58;;;;;;;0.60;0.60;;;6.40;99.90;;;;;;4976276;28;20077;-84
2022/11/17 11:02:33;;;;;;;0.60;0.60;;;6.40;99.90;;;;;;4973737;28;20054;-83
2022/11/17 11:05:14;;;;;;;0.50;0.50;;;6.40;99.90;;;;;;4992703;28;20092;-84
2022/11/17 11:07:40;;;;;;;0.60;0.60;;;6.30;99.90;;;;;;4974217;28;20312;-83
2022/11/17 11:10:12;;;;;;;0.50;0.50;;;6.30;99.90;;;;;;4959524;28;20049;-84
2022/11/17 11:13:00;;;;;;;0.57;0.57;;;6.30;99.90;;;;;;4941729;28;20810;-84
2022/11/17 11:15:34;;;;;;;0.60;0.60;;;6.30;99.90;;;;;;4995557;28;20103;-82
2022/11/17 11:18:01;;;;;;;0.50;0.50;;;6.20;99.90;;;;;;4974917;28;20112;-82
2022/11/17 11:20:58;;;;;;;0.50;0.50;;;6.20;99.90;;;;;;4960379;28;20038;-84
2022/11/17 11:23:35;;;;;;;0.57;0.57;;;6.20;99.90;;;;;;4939735;28;20092;-84
2022/11/17 11:26:26;;;;;;;0.90;0.80;;;6.20;99.90;;;;;;4950346;28;20463;-83
2022/11/17 11:29:09;;;;;;;0.50;0.50;;;6.30;99.90;;;;;;4985580;28;20124;-84
2022/11/17 11:31:51;;;;;;;0.60;0.60;;;6.30;99.90;;;;;;4999641;28;20069;-83
2022/11/17 11:34:37;;;;;;;0.60;0.60;;;6.30;99.90;;;;;;4955031;28;20084;-83
2022/11/17 11:37:09;;;;;;;0.50;0.50;;;6.30;99.90;;;;;;4971439;28;20072;-84
2022/11/17 11:39:49;;;;;;;0.88;0.80;;;6.30;99.90;;;;;;4989838;28;20034;-83
2022/11/17 11:42:33;;;;;;;0.90;0.90;;;6.30;99.90;;;;;;4957309;28;20066;-84
2022/11/17 11:45:02;;;;;;;0.90;0.90;;;6.30;99.90;;;;;;4992295;28;20388;-81
2022/11/17 11:47:31;;;;;;;0.60;0.60;;;6.30;99.90;;;;;;4971445;28;20073;-83
2022/11/17 11:50:04;;;;;;;0.52;0.52;;;6.30;99.90;;;;;;4989018;28;20108;-83
2022/11/17 11:52:35;;;;;;;0.55;0.55;;;6.30;99.90;;;;;;4958439;28;20068;-83
2022/11/17 11:55:13;;;;;;;0.60;0.60;;;6.30;99.90;;;;;;4957898;28;20069;-83
2022/11/17 11:57:49;;;;;;;0.60;0.60;;;6.70;99.90;;;;;;4973116;28;20057;-83
2022/11/17 12:00:16;;;;;;;0.77;0.77;;;6.30;99.90;;;;;;5000373;28;20053;-81
2022/11/17 12:03:12;;;;;;;0.60;0.60;;;6.40;99.90;;;;;;5008574;28;20042;-82
2022/11/17 12:09:12;;;;;;;0.90;0.90;;;6.40;99.90;;;;;;4948490;28;20050;-83
2022/11/17 12:14:24;;;;;;;0.60;0.60;;;6.40;99.90;;;;;;4994494;28;20104;-84
2022/11/17 12:16:59;;;;;;;0.60;0.60;;;6.50;99.90;;;;;;4969848;28;20030;-83
2022/11/17 12:19:43;;;;;;;0.60;0.60;;;6.50;99.90;;;;;;4997574;28;20092;-83
2022/11/17 12:22:17;;;;;;;0.43;0.43;;;6.50;99.90;;;;;;4974505;28;20093;-83
2022/11/17 12:24:44;;;;;;;4.78;1.52;;;6.40;99.90;;;;;;4972735;28;20041;-82
2022/11/17 12:27:32;;;;;;;0.88;0.88;;;6.50;99.90;;;;;;4942908;28;20050;-83
2022/11/17 12:30:03;;;;;;;0.68;0.68;;;6.40;99.90;;;;;;4972827;28;20041;-82
2022/11/17 12:32:50;;;;;;;0.50;0.50;;;6.40;99.90;;;;;;4977979;28;20046;-82
2022/11/17 12:35:42;;;;;;;1.05;1.05;;;6.50;99.90;;;;;;4980181;28;20046;-83
2022/11/17 12:38:14;;;;;;;0.50;0.50;;;6.40;99.90;;;;;;4982095;28;20049;-83
2022/11/17 12:40:51;;;;;;;0.50;0.50;;;6.50;99.90;;;;;;4989651;28;20034;-83
2022/11/17 12:43:24;;;;;;;;;;;6.50;99.90;;;;;;4984096;28;20936;-83
2022/11/17 12:45:58;;;;;;;0.82;0.82;;;6.50;99.90;;;;;;5005267;28;19917;-84
2022/11/17 12:48:50;;;;;;;0.60;0.60;;;6.50;99.90;;;;;;5006497;28;20290;-83
2022/11/17 12:51:39;;;;;;;0.60;0.60;;;6.50;99.90;;;;;;5005059;28;20049;-83
2022/11/17 12:54:21;;;;;;;0.52;0.52;;;6.50;99.90;;;;;;4984021;28;20042;-83
2022/11/17 12:56:53;;;;;;;0.60;0.60;;;6.50;99.90;;;;;;4999992;28;20373;-83
2022/11/17 12:59:57;;;;;;;0.40;0.40;;;6.50;99.90;;;;;;4984590;28;20049;-83
2022/11/17 13:03:01;;;;;;;0.60;0.60;;;6.50;99.90;;;;;;4984096;28;20054;-82
2022/11/17 13:05:29;;;;;;;0.50;0.50;;;6.60;99.90;;;;;;4998935;28;20038;-83
2022/11/17 13:08:13;;;;;;;0.52;0.52;;;6.50;99.90;;;;;;4965353;28;20045;-83
2022/11/17 13:10:40;;;;;;;0.60;0.60;;;6.80;99.90;;;;;;4979128;28;20100;-83
2022/11/17 13:13:14;;;;;;;0.50;0.50;;;6.60;99.90;;;;;;4981098;28;20053;-84
2022/11/17 13:15:42;;;;;;;0.60;0.60;;;6.60;99.90;;;;;;4980968;28;20037;-83
2022/11/17 13:18:14;;;;;;;0.50;0.50;;;6.60;99.90;;;;;;4979113;28;20475;-84
2022/11/17 13:20:40;;;;;;;0.50;0.50;;;6.60;99.90;;;;;;4965104;28;20088;-83
2022/11/17 13:23:24;;;;;;;0.63;0.63;;;6.60;99.90;;;;;;4978353;28;20049;-82
2022/11/17 13:26:15;;;;;;;0.60;0.60;;;6.70;99.90;;;;;;4954756;28;20140;-83
2022/11/17 13:28:43;;;;;;;0.60;0.60;;;6.70;99.90;;;;;;4969750;28;20173;-83
2022/11/17 13:31:21;;;;;;;0.50;0.50;;;6.70;99.90;;;;;;4976249;28;20045;-84
2022/11/17 13:34:05;;;;;;;0.50;0.50;;;6.70;99.90;;;;;;4981355;28;20128;-82
2022/11/17 13:36:31;;;;;;;0.50;0.50;;;6.70;99.90;;;;;;4960225;28;20050;-83
2022/11/17 13:38:59;;;;;;;0.70;0.70;;;7.50;99.90;;;;;;4983556;28;20049;-83
2022/11/17 13:41:27;;;;;;;0.50;0.50;;;6.70;99.90;;;;;;4995452;28;20045;-83
2022/11/17 13:43:54;;;;;;;0.55;0.55;;;6.70;99.90;;;;;;4977539;28;20050;-82
2022/11/17 13:46:20;;;;;;;0.50;0.50;;;6.70;99.90;;;;;;4961503;28;20049;-82
2022/11/17 13:48:46;;;;;;;;;;;6.70;99.90;;;;;;4979292;28;20086;-82
2022/11/17 13:51:37;;;;;;;0.70;0.70;;;6.80;99.90;;;;;;4994384;28;20004;-83
2022/11/17 13:54:16;;;;;;;0.60;0.60;;;6.80;99.90;;;;;;4968818;28;20050;-82
2022/11/17 13:56:44;;;;;;;0.60;0.60;;;6.80;99.90;;;;;;4949480;28;21285;-82
2022/11/17 13:59:22;;;;;;;0.50;0.50;;;6.80;99.90;;;;;;4973652;28;20039;-82